sensor_id;sensor_type;location;lat;lon;timestamp;P1;durP1;ratioP1;P2;durP2;ratioP2
14076;SDS011;7114;51.100;13.998;2024-02-23T00:01:03;5.95;;;1.90;;
14076;SDS011;7114;51.100;13.998;2024-02-23T00:03:31;5.33;;;1.70;;
14076;SDS011;7114;51.100;13.998;2024-02-23T00:05:58;5.45;;;1.88;;
14076;SDS011;7114;51.100;13.998;2024-02-23T00:08:24;5.35;;;1.70;;
14076;SDS011;7114;51.100;13.998;2024-02-23T00:10:52;6.05;;;1.55;;
14076;SDS011;7114;51.100;13.998;2024-02-23T00:13:18;5.18;;;1.30;;
14076;SDS011;7114;51.100;13.998;2024-02-23T00:15:45;5.00;;;1.43;;
14076;SDS011;7114;51.100;13.998;2024-02-23T00:18:11;4.88;;;1.27;;
14076;SDS011;7114;51.100;13.998;2024-02-23T00:20:39;5.47;;;1.20;;
14076;SDS011;7114;51.100;13.998;2024-02-23T00:23:06;5.28;;;1.48;;
14076;SDS011;7114;51.100;13.998;2024-02-23T00:25:32;4.88;;;1.42;;
14076;SDS011;7114;51.100;13.998;2024-02-23T00:28:00;4.93;;;1.30;;
14076;SDS011;7114;51.100;13.998;2024-02-23T00:30:26;4.25;;;1.05;;
14076;SDS011;7114;51.100;13.998;2024-02-23T00:32:53;5.30;;;1.48;;
14076;SDS011;7114;51.100;13.998;2024-02-23T00:35:19;5.53;;;1.30;;
14076;SDS011;7114;51.100;13.998;2024-02-23T00:37:46;4.95;;;1.35;;
14076;SDS011;7114;51.100;13.998;2024-02-23T00:40:12;4.70;;;1.30;;
14076;SDS011;7114;51.100;13.998;2024-02-23T00:42:39;5.97;;;1.60;;
14076;SDS011;7114;51.100;13.998;2024-02-23T00:45:07;4.68;;;1.40;;
14076;SDS011;7114;51.100;13.998;2024-02-23T00:47:34;5.40;;;1.40;;
14076;SDS011;7114;51.100;13.998;2024-02-23T00:50:01;6.10;;;1.70;;
14076;SDS011;7114;51.100;13.998;2024-02-23T00:52:28;5.37;;;1.60;;
14076;SDS011;7114;51.100;13.998;2024-02-23T00:54:54;5.28;;;1.55;;
14076;SDS011;7114;51.100;13.998;2024-02-23T00:57:20;6.00;;;1.73;;
14076;SDS011;7114;51.100;13.998;2024-02-23T00:59:52;5.40;;;1.85;;
14076;SDS011;7114;51.100;13.998;2024-02-23T01:02:20;5.75;;;1.77;;
14076;SDS011;7114;51.100;13.998;2024-02-23T01:04:46;5.23;;;1.60;;
14076;SDS011;7114;51.100;13.998;2024-02-23T01:07:12;5.70;;;1.67;;
14076;SDS011;7114;51.100;13.998;2024-02-23T01:09:38;5.70;;;1.70;;
14076;SDS011;7114;51.100;13.998;2024-02-23T01:12:05;5.80;;;1.70;;
14076;SDS011;7114;51.100;13.998;2024-02-23T01:14:32;5.20;;;1.80;;
14076;SDS011;7114;51.100;13.998;2024-02-23T01:16:59;5.50;;;1.90;;
14076;SDS011;7114;51.100;13.998;2024-02-23T01:19:27;5.47;;;1.90;;
14076;SDS011;7114;51.100;13.998;2024-02-23T01:21:53;5.90;;;1.80;;
14076;SDS011;7114;51.100;13.998;2024-02-23T01:24:24;5.35;;;1.73;;
14076;SDS011;7114;51.100;13.998;2024-02-23T01:26:52;5.18;;;1.58;;
14076;SDS011;7114;51.100;13.998;2024-02-23T01:29:18;5.43;;;2.00;;
14076;SDS011;7114;51.100;13.998;2024-02-23T01:31:45;5.65;;;1.80;;
14076;SDS011;7114;51.100;13.998;2024-02-23T01:34:12;5.13;;;1.67;;
14076;SDS011;7114;51.100;13.998;2024-02-23T01:36:40;5.10;;;1.80;;
14076;SDS011;7114;51.100;13.998;2024-02-23T01:39:06;5.13;;;1.70;;
14076;SDS011;7114;51.100;13.998;2024-02-23T01:41:33;5.73;;;2.00;;
14076;SDS011;7114;51.100;13.998;2024-02-23T01:43:59;5.10;;;1.60;;
14076;SDS011;7114;51.100;13.998;2024-02-23T01:46:25;5.10;;;1.70;;
14076;SDS011;7114;51.100;13.998;2024-02-23T01:48:52;5.80;;;1.65;;
14076;SDS011;7114;51.100;13.998;2024-02-23T01:51:18;4.80;;;1.63;;
14076;SDS011;7114;51.100;13.998;2024-02-23T01:53:47;5.10;;;1.60;;
14076;SDS011;7114;51.100;13.998;2024-02-23T01:56:13;4.80;;;1.30;;
14076;SDS011;7114;51.100;13.998;2024-02-23T01:58:42;4.75;;;1.35;;
14076;SDS011;7114;51.100;13.998;2024-02-23T02:01:09;5.03;;;1.20;;
14076;SDS011;7114;51.100;13.998;2024-02-23T02:03:36;4.72;;;1.30;;
14076;SDS011;7114;51.100;13.998;2024-02-23T02:06:02;4.37;;;1.20;;
14076;SDS011;7114;51.100;13.998;2024-02-23T02:08:31;5.28;;;1.00;;
14076;SDS011;7114;51.100;13.998;2024-02-23T02:10:59;4.35;;;0.98;;
14076;SDS011;7114;51.100;13.998;2024-02-23T02:13:27;3.25;;;0.40;;
14076;SDS011;7114;51.100;13.998;2024-02-23T02:15:55;3.05;;;0.40;;
14076;SDS011;7114;51.100;13.998;2024-02-23T02:18:21;3.07;;;0.40;;
14076;SDS011;7114;51.100;13.998;2024-02-23T02:20:50;2.72;;;0.30;;
14076;SDS011;7114;51.100;13.998;2024-02-23T02:23:18;2.35;;;0.30;;
14076;SDS011;7114;51.100;13.998;2024-02-23T02:25:45;2.60;;;0.30;;
14076;SDS011;7114;51.100;13.998;2024-02-23T02:28:12;2.75;;;0.35;;
14076;SDS011;7114;51.100;13.998;2024-02-23T02:30:39;2.37;;;0.30;;
14076;SDS011;7114;51.100;13.998;2024-02-23T02:33:05;2.15;;;0.30;;
14076;SDS011;7114;51.100;13.998;2024-02-23T02:35:31;2.08;;;0.20;;
14076;SDS011;7114;51.100;13.998;2024-02-23T02:37:57;3.45;;;0.30;;
14076;SDS011;7114;51.100;13.998;2024-02-23T02:40:24;2.10;;;0.20;;
14076;SDS011;7114;51.100;13.998;2024-02-23T02:42:50;2.73;;;0.30;;
14076;SDS011;7114;51.100;13.998;2024-02-23T02:45:18;2.67;;;0.30;;
14076;SDS011;7114;51.100;13.998;2024-02-23T02:47:45;3.28;;;0.30;;
14076;SDS011;7114;51.100;13.998;2024-02-23T02:50:11;1.77;;;0.30;;
14076;SDS011;7114;51.100;13.998;2024-02-23T02:52:38;2.97;;;0.30;;
14076;SDS011;7114;51.100;13.998;2024-02-23T02:55:04;3.47;;;0.40;;
14076;SDS011;7114;51.100;13.998;2024-02-23T02:57:31;2.60;;;0.30;;
14076;SDS011;7114;51.100;13.998;2024-02-23T02:59:58;2.15;;;0.30;;
14076;SDS011;7114;51.100;13.998;2024-02-23T03:02:25;3.05;;;0.30;;
14076;SDS011;7114;51.100;13.998;2024-02-23T03:04:52;2.63;;;0.25;;
14076;SDS011;7114;51.100;13.998;2024-02-23T03:07:20;2.87;;;0.30;;
14076;SDS011;7114;51.100;13.998;2024-02-23T03:09:46;2.60;;;0.20;;
14076;SDS011;7114;51.100;13.998;2024-02-23T03:12:13;2.22;;;0.40;;
14076;SDS011;7114;51.100;13.998;2024-02-23T03:14:40;2.38;;;0.30;;
14076;SDS011;7114;51.100;13.998;2024-02-23T03:17:06;2.35;;;0.30;;
14076;SDS011;7114;51.100;13.998;2024-02-23T03:19:35;1.93;;;0.30;;
14076;SDS011;7114;51.100;13.998;2024-02-23T03:22:02;2.42;;;0.30;;
14076;SDS011;7114;51.100;13.998;2024-02-23T03:24:28;3.05;;;0.38;;
14076;SDS011;7114;51.100;13.998;2024-02-23T03:26:54;2.65;;;0.30;;
14076;SDS011;7114;51.100;13.998;2024-02-23T03:29:21;3.05;;;0.30;;
14076;SDS011;7114;51.100;13.998;2024-02-23T03:31:49;1.90;;;0.20;;
14076;SDS011;7114;51.100;13.998;2024-02-23T03:34:15;2.55;;;0.20;;
14076;SDS011;7114;51.100;13.998;2024-02-23T03:36:43;1.98;;;0.30;;
14076;SDS011;7114;51.100;13.998;2024-02-23T03:39:09;1.98;;;0.30;;
14076;SDS011;7114;51.100;13.998;2024-02-23T03:41:36;2.25;;;0.30;;
14076;SDS011;7114;51.100;13.998;2024-02-23T03:44:03;3.53;;;0.40;;
14076;SDS011;7114;51.100;13.998;2024-02-23T03:46:29;3.63;;;0.30;;
14076;SDS011;7114;51.100;13.998;2024-02-23T03:48:56;2.60;;;0.30;;
14076;SDS011;7114;51.100;13.998;2024-02-23T03:51:22;1.67;;;0.30;;
14076;SDS011;7114;51.100;13.998;2024-02-23T03:53:50;3.15;;;0.30;;
14076;SDS011;7114;51.100;13.998;2024-02-23T03:56:16;2.37;;;0.30;;
14076;SDS011;7114;51.100;13.998;2024-02-23T03:58:42;1.95;;;0.20;;
14076;SDS011;7114;51.100;13.998;2024-02-23T04:01:09;2.08;;;0.20;;
14076;SDS011;7114;51.100;13.998;2024-02-23T04:03:35;2.80;;;0.20;;
14076;SDS011;7114;51.100;13.998;2024-02-23T04:06:01;2.33;;;0.50;;
14076;SDS011;7114;51.100;13.998;2024-02-23T04:08:28;1.70;;;0.30;;
14076;SDS011;7114;51.100;13.998;2024-02-23T04:10:56;1.88;;;0.30;;
14076;SDS011;7114;51.100;13.998;2024-02-23T04:13:22;1.48;;;0.20;;
14076;SDS011;7114;51.100;13.998;2024-02-23T04:15:49;2.50;;;0.30;;
14076;SDS011;7114;51.100;13.998;2024-02-23T04:18:15;2.90;;;0.30;;
14076;SDS011;7114;51.100;13.998;2024-02-23T04:20:42;3.80;;;0.30;;
14076;SDS011;7114;51.100;13.998;2024-02-23T04:23:08;2.20;;;0.22;;
14076;SDS011;7114;51.100;13.998;2024-02-23T04:25:34;2.28;;;0.25;;
14076;SDS011;7114;51.100;13.998;2024-02-23T04:28:02;3.20;;;0.20;;
14076;SDS011;7114;51.100;13.998;2024-02-23T04:30:29;1.55;;;0.20;;
14076;SDS011;7114;51.100;13.998;2024-02-23T04:32:56;2.37;;;0.27;;
14076;SDS011;7114;51.100;13.998;2024-02-23T04:35:22;1.70;;;0.20;;
14076;SDS011;7114;51.100;13.998;2024-02-23T04:37:48;2.35;;;0.20;;
14076;SDS011;7114;51.100;13.998;2024-02-23T04:40:16;1.75;;;0.20;;
14076;SDS011;7114;51.100;13.998;2024-02-23T04:42:43;1.85;;;0.25;;
14076;SDS011;7114;51.100;13.998;2024-02-23T04:45:11;2.67;;;0.20;;
14076;SDS011;7114;51.100;13.998;2024-02-23T04:47:37;1.60;;;0.20;;
14076;SDS011;7114;51.100;13.998;2024-02-23T04:50:05;1.48;;;0.20;;
14076;SDS011;7114;51.100;13.998;2024-02-23T04:52:33;1.85;;;0.20;;
14076;SDS011;7114;51.100;13.998;2024-02-23T04:54:59;2.20;;;0.20;;
14076;SDS011;7114;51.100;13.998;2024-02-23T04:57:26;1.83;;;0.20;;
14076;SDS011;7114;51.100;13.998;2024-02-23T04:59:52;3.15;;;0.22;;
14076;SDS011;7114;51.100;13.998;2024-02-23T05:02:20;2.78;;;0.28;;
14076;SDS011;7114;51.100;13.998;2024-02-23T05:04:46;1.50;;;0.20;;
14076;SDS011;7114;51.100;13.998;2024-02-23T05:07:12;1.67;;;0.20;;
14076;SDS011;7114;51.100;13.998;2024-02-23T05:09:39;3.77;;;0.30;;
14076;SDS011;7114;51.100;13.998;2024-02-23T05:12:06;2.33;;;0.20;;
14076;SDS011;7114;51.100;13.998;2024-02-23T05:14:33;2.28;;;0.40;;
14076;SDS011;7114;51.100;13.998;2024-02-23T05:16:59;3.45;;;0.30;;
14076;SDS011;7114;51.100;13.998;2024-02-23T05:19:27;1.50;;;0.20;;
14076;SDS011;7114;51.100;13.998;2024-02-23T05:21:53;2.03;;;0.20;;
14076;SDS011;7114;51.100;13.998;2024-02-23T05:24:20;2.03;;;0.20;;
14076;SDS011;7114;51.100;13.998;2024-02-23T05:26:46;2.88;;;0.30;;
14076;SDS011;7114;51.100;13.998;2024-02-23T05:29:13;2.95;;;0.30;;
14076;SDS011;7114;51.100;13.998;2024-02-23T05:31:46;1.90;;;0.20;;
14076;SDS011;7114;51.100;13.998;2024-02-23T05:34:13;2.83;;;0.27;;
14076;SDS011;7114;51.100;13.998;2024-02-23T05:36:41;2.25;;;0.22;;
14076;SDS011;7114;51.100;13.998;2024-02-23T05:39:08;1.70;;;0.20;;
14076;SDS011;7114;51.100;13.998;2024-02-23T05:41:35;3.60;;;0.30;;
14076;SDS011;7114;51.100;13.998;2024-02-23T05:44:03;2.63;;;0.20;;
14076;SDS011;7114;51.100;13.998;2024-02-23T05:46:31;2.30;;;0.20;;
14076;SDS011;7114;51.100;13.998;2024-02-23T05:48:58;3.00;;;0.20;;
14076;SDS011;7114;51.100;13.998;2024-02-23T05:51:25;2.38;;;0.30;;
14076;SDS011;7114;51.100;13.998;2024-02-23T05:53:55;2.33;;;0.20;;
14076;SDS011;7114;51.100;13.998;2024-02-23T05:56:21;2.05;;;0.20;;
14076;SDS011;7114;51.100;13.998;2024-02-23T05:58:48;2.63;;;0.27;;
14076;SDS011;7114;51.100;13.998;2024-02-23T06:01:15;1.52;;;0.20;;
14076;SDS011;7114;51.100;13.998;2024-02-23T06:03:41;2.47;;;0.30;;
14076;SDS011;7114;51.100;13.998;2024-02-23T06:06:08;3.08;;;0.30;;
14076;SDS011;7114;51.100;13.998;2024-02-23T06:08:35;2.58;;;0.25;;
14076;SDS011;7114;51.100;13.998;2024-02-23T06:11:03;2.63;;;0.30;;
14076;SDS011;7114;51.100;13.998;2024-02-23T06:13:30;1.65;;;0.22;;
14076;SDS011;7114;51.100;13.998;2024-02-23T06:15:56;2.55;;;0.30;;
14076;SDS011;7114;51.100;13.998;2024-02-23T06:18:22;2.42;;;0.30;;
14076;SDS011;7114;51.100;13.998;2024-02-23T06:20:49;2.25;;;0.20;;
14076;SDS011;7114;51.100;13.998;2024-02-23T06:23:15;2.03;;;0.20;;
14076;SDS011;7114;51.100;13.998;2024-02-23T06:25:41;4.30;;;0.40;;
14076;SDS011;7114;51.100;13.998;2024-02-23T06:28:10;3.33;;;0.30;;
14076;SDS011;7114;51.100;13.998;2024-02-23T06:30:36;2.92;;;0.30;;
14076;SDS011;7114;51.100;13.998;2024-02-23T06:33:04;4.03;;;0.35;;
14076;SDS011;7114;51.100;13.998;2024-02-23T06:35:31;3.30;;;0.30;;
14076;SDS011;7114;51.100;13.998;2024-02-23T06:37:58;3.55;;;0.30;;
14076;SDS011;7114;51.100;13.998;2024-02-23T06:40:24;3.80;;;0.30;;
14076;SDS011;7114;51.100;13.998;2024-02-23T06:42:50;5.93;;;0.50;;
14076;SDS011;7114;51.100;13.998;2024-02-23T06:45:18;3.28;;;0.30;;
14076;SDS011;7114;51.100;13.998;2024-02-23T06:47:50;4.43;;;0.43;;
14076;SDS011;7114;51.100;13.998;2024-02-23T06:50:16;3.72;;;0.45;;
14076;SDS011;7114;51.100;13.998;2024-02-23T06:52:43;3.67;;;0.50;;
14076;SDS011;7114;51.100;13.998;2024-02-23T06:55:09;5.97;;;0.70;;
14076;SDS011;7114;51.100;13.998;2024-02-23T06:57:35;5.10;;;0.60;;
14076;SDS011;7114;51.100;13.998;2024-02-23T07:00:03;4.93;;;0.87;;
14076;SDS011;7114;51.100;13.998;2024-02-23T07:02:34;4.50;;;0.60;;
14076;SDS011;7114;51.100;13.998;2024-02-23T07:05:01;5.32;;;0.80;;
14076;SDS011;7114;51.100;13.998;2024-02-23T07:07:29;6.15;;;1.10;;
14076;SDS011;7114;51.100;13.998;2024-02-23T07:09:56;5.15;;;1.27;;
14076;SDS011;7114;51.100;13.998;2024-02-23T07:12:23;5.30;;;0.80;;
14076;SDS011;7114;51.100;13.998;2024-02-23T07:14:49;4.65;;;0.60;;
14076;SDS011;7114;51.100;13.998;2024-02-23T07:17:16;4.78;;;0.55;;
14076;SDS011;7114;51.100;13.998;2024-02-23T07:19:44;3.33;;;0.50;;
14076;SDS011;7114;51.100;13.998;2024-02-23T07:22:10;3.97;;;0.40;;
14076;SDS011;7114;51.100;13.998;2024-02-23T07:24:39;2.20;;;0.30;;
14076;SDS011;7114;51.100;13.998;2024-02-23T07:27:05;3.20;;;0.40;;
14076;SDS011;7114;51.100;13.998;2024-02-23T07:29:31;3.08;;;0.40;;
14076;SDS011;7114;51.100;13.998;2024-02-23T07:31:58;3.13;;;0.30;;
14076;SDS011;7114;51.100;13.998;2024-02-23T07:34:25;2.97;;;0.25;;
14076;SDS011;7114;51.100;13.998;2024-02-23T07:36:53;4.33;;;0.30;;
14076;SDS011;7114;51.100;13.998;2024-02-23T07:39:20;2.15;;;0.30;;
14076;SDS011;7114;51.100;13.998;2024-02-23T07:41:47;2.75;;;0.30;;
14076;SDS011;7114;51.100;13.998;2024-02-23T07:44:13;2.88;;;0.20;;
14076;SDS011;7114;51.100;13.998;2024-02-23T07:46:40;3.50;;;0.30;;
14076;SDS011;7114;51.100;13.998;2024-02-23T07:49:06;2.67;;;0.30;;
14076;SDS011;7114;51.100;13.998;2024-02-23T07:51:33;2.05;;;0.20;;
14076;SDS011;7114;51.100;13.998;2024-02-23T07:54:00;2.70;;;0.20;;
14076;SDS011;7114;51.100;13.998;2024-02-23T07:56:27;3.58;;;0.30;;
14076;SDS011;7114;51.100;13.998;2024-02-23T07:58:54;3.80;;;0.20;;
14076;SDS011;7114;51.100;13.998;2024-02-23T08:01:21;3.20;;;0.47;;
14076;SDS011;7114;51.100;13.998;2024-02-23T08:03:47;3.78;;;0.30;;
14076;SDS011;7114;51.100;13.998;2024-02-23T08:06:14;3.25;;;0.30;;
14076;SDS011;7114;51.100;13.998;2024-02-23T08:08:40;3.25;;;0.40;;
14076;SDS011;7114;51.100;13.998;2024-02-23T08:11:08;3.85;;;0.45;;
14076;SDS011;7114;51.100;13.998;2024-02-23T08:13:34;5.10;;;0.60;;
14076;SDS011;7114;51.100;13.998;2024-02-23T08:16:00;5.53;;;0.80;;
14076;SDS011;7114;51.100;13.998;2024-02-23T08:18:27;4.75;;;0.50;;
14076;SDS011;7114;51.100;13.998;2024-02-23T08:20:53;3.25;;;0.40;;
14076;SDS011;7114;51.100;13.998;2024-02-23T08:23:20;4.75;;;0.50;;
14076;SDS011;7114;51.100;13.998;2024-02-23T08:25:47;3.40;;;0.40;;
14076;SDS011;7114;51.100;13.998;2024-02-23T08:28:15;3.10;;;0.40;;
14076;SDS011;7114;51.100;13.998;2024-02-23T08:30:41;2.95;;;0.30;;
14076;SDS011;7114;51.100;13.998;2024-02-23T08:33:07;3.53;;;0.35;;
14076;SDS011;7114;51.100;13.998;2024-02-23T08:35:35;4.38;;;0.40;;
14076;SDS011;7114;51.100;13.998;2024-02-23T08:38:01;2.87;;;0.30;;
14076;SDS011;7114;51.100;13.998;2024-02-23T08:40:28;3.35;;;0.40;;
14076;SDS011;7114;51.100;13.998;2024-02-23T08:42:55;2.88;;;0.35;;
14076;SDS011;7114;51.100;13.998;2024-02-23T08:45:22;3.15;;;0.30;;
14076;SDS011;7114;51.100;13.998;2024-02-23T08:47:49;2.78;;;0.40;;
14076;SDS011;7114;51.100;13.998;2024-02-23T08:50:15;3.33;;;0.30;;
14076;SDS011;7114;51.100;13.998;2024-02-23T08:52:41;3.97;;;0.30;;
14076;SDS011;7114;51.100;13.998;2024-02-23T08:55:08;3.17;;;0.30;;
14076;SDS011;7114;51.100;13.998;2024-02-23T08:57:34;3.17;;;0.32;;
14076;SDS011;7114;51.100;13.998;2024-02-23T09:00:01;2.83;;;0.20;;
14076;SDS011;7114;51.100;13.998;2024-02-23T09:02:31;2.83;;;0.30;;
14076;SDS011;7114;51.100;13.998;2024-02-23T09:05:00;4.35;;;0.30;;
14076;SDS011;7114;51.100;13.998;2024-02-23T09:07:26;1.67;;;0.30;;
14076;SDS011;7114;51.100;13.998;2024-02-23T09:09:51;5.57;;;0.43;;
14076;SDS011;7114;51.100;13.998;2024-02-23T09:12:18;3.60;;;0.40;;
14076;SDS011;7114;51.100;13.998;2024-02-23T09:14:45;4.70;;;0.60;;
14076;SDS011;7114;51.100;13.998;2024-02-23T09:17:11;6.23;;;0.50;;
14076;SDS011;7114;51.100;13.998;2024-02-23T09:19:39;5.22;;;0.47;;
14076;SDS011;7114;51.100;13.998;2024-02-23T09:22:05;5.93;;;0.40;;
14076;SDS011;7114;51.100;13.998;2024-02-23T09:24:32;3.33;;;0.30;;
14076;SDS011;7114;51.100;13.998;2024-02-23T09:26:58;3.50;;;0.40;;
14076;SDS011;7114;51.100;13.998;2024-02-23T09:29:26;4.40;;;0.20;;
14076;SDS011;7114;51.100;13.998;2024-02-23T09:31:53;3.83;;;0.30;;
14076;SDS011;7114;51.100;13.998;2024-02-23T09:34:19;2.13;;;0.30;;
14076;SDS011;7114;51.100;13.998;2024-02-23T09:36:47;4.65;;;0.30;;
14076;SDS011;7114;51.100;13.998;2024-02-23T09:39:14;2.78;;;0.30;;
14076;SDS011;7114;51.100;13.998;2024-02-23T09:41:40;2.97;;;0.30;;
14076;SDS011;7114;51.100;13.998;2024-02-23T09:44:10;2.80;;;0.30;;
14076;SDS011;7114;51.100;13.998;2024-02-23T09:46:37;3.40;;;0.30;;
14076;SDS011;7114;51.100;13.998;2024-02-23T09:49:04;3.15;;;0.30;;
14076;SDS011;7114;51.100;13.998;2024-02-23T09:51:31;4.50;;;0.40;;
14076;SDS011;7114;51.100;13.998;2024-02-23T09:54:01;2.77;;;0.30;;
14076;SDS011;7114;51.100;13.998;2024-02-23T09:56:28;4.93;;;0.40;;
14076;SDS011;7114;51.100;13.998;2024-02-23T09:58:55;2.92;;;0.40;;
14076;SDS011;7114;51.100;13.998;2024-02-23T10:01:27;4.32;;;0.40;;
14076;SDS011;7114;51.100;13.998;2024-02-23T10:03:54;3.97;;;0.40;;
14076;SDS011;7114;51.100;13.998;2024-02-23T10:06:23;2.63;;;0.30;;
14076;SDS011;7114;51.100;13.998;2024-02-23T10:08:49;3.90;;;0.40;;
14076;SDS011;7114;51.100;13.998;2024-02-23T10:11:19;2.95;;;0.30;;
14076;SDS011;7114;51.100;13.998;2024-02-23T10:13:46;2.42;;;0.30;;
14076;SDS011;7114;51.100;13.998;2024-02-23T10:16:15;3.47;;;0.45;;
14076;SDS011;7114;51.100;13.998;2024-02-23T10:18:42;3.07;;;0.40;;
14076;SDS011;7114;51.100;13.998;2024-02-23T10:21:08;2.22;;;0.30;;
14076;SDS011;7114;51.100;13.998;2024-02-23T10:23:34;3.90;;;0.30;;
14076;SDS011;7114;51.100;13.998;2024-02-23T10:26:01;3.47;;;0.35;;
14076;SDS011;7114;51.100;13.998;2024-02-23T10:28:28;3.83;;;0.40;;
14076;SDS011;7114;51.100;13.998;2024-02-23T10:30:55;1.93;;;0.30;;
14076;SDS011;7114;51.100;13.998;2024-02-23T10:33:22;3.33;;;0.40;;
14076;SDS011;7114;51.100;13.998;2024-02-23T10:35:49;3.88;;;0.40;;
14076;SDS011;7114;51.100;13.998;2024-02-23T10:38:17;2.88;;;0.30;;
14076;SDS011;7114;51.100;13.998;2024-02-23T10:40:44;2.58;;;0.40;;
14076;SDS011;7114;51.100;13.998;2024-02-23T10:43:12;3.10;;;0.40;;
14076;SDS011;7114;51.100;13.998;2024-02-23T10:45:40;2.83;;;0.40;;
14076;SDS011;7114;51.100;13.998;2024-02-23T10:48:07;2.65;;;0.30;;
14076;SDS011;7114;51.100;13.998;2024-02-23T10:50:35;3.05;;;0.50;;
14076;SDS011;7114;51.100;13.998;2024-02-23T10:53:02;2.95;;;0.60;;
14076;SDS011;7114;51.100;13.998;2024-02-23T10:55:30;3.93;;;0.30;;
14076;SDS011;7114;51.100;13.998;2024-02-23T10:57:57;2.38;;;0.40;;
14076;SDS011;7114;51.100;13.998;2024-02-23T11:00:25;2.08;;;0.30;;
14076;SDS011;7114;51.100;13.998;2024-02-23T11:02:54;2.50;;;0.30;;
14076;SDS011;7114;51.100;13.998;2024-02-23T11:05:21;2.70;;;0.30;;
14076;SDS011;7114;51.100;13.998;2024-02-23T11:07:48;3.93;;;0.33;;
14076;SDS011;7114;51.100;13.998;2024-02-23T11:10:17;5.50;;;0.40;;
14076;SDS011;7114;51.100;13.998;2024-02-23T11:12:56;4.82;;;0.40;;
14076;SDS011;7114;51.100;13.998;2024-02-23T11:15:26;4.78;;;0.45;;
14076;SDS011;7114;51.100;13.998;2024-02-23T11:17:54;2.85;;;0.30;;
14076;SDS011;7114;51.100;13.998;2024-02-23T11:20:21;5.13;;;0.37;;
14076;SDS011;7114;51.100;13.998;2024-02-23T11:22:51;3.25;;;0.30;;
14076;SDS011;7114;51.100;13.998;2024-02-23T11:25:18;4.07;;;0.40;;
14076;SDS011;7114;51.100;13.998;2024-02-23T11:27:48;2.70;;;0.30;;
14076;SDS011;7114;51.100;13.998;2024-02-23T11:30:16;3.42;;;0.35;;
14076;SDS011;7114;51.100;13.998;2024-02-23T11:32:44;2.97;;;0.30;;
14076;SDS011;7114;51.100;13.998;2024-02-23T11:35:13;4.32;;;0.40;;
14076;SDS011;7114;51.100;13.998;2024-02-23T11:37:43;2.85;;;0.40;;
14076;SDS011;7114;51.100;13.998;2024-02-23T11:40:11;3.38;;;0.47;;
14076;SDS011;7114;51.100;13.998;2024-02-23T11:42:39;3.60;;;0.40;;
14076;SDS011;7114;51.100;13.998;2024-02-23T11:45:07;3.37;;;0.30;;
14076;SDS011;7114;51.100;13.998;2024-02-23T11:47:34;2.47;;;0.32;;
14076;SDS011;7114;51.100;13.998;2024-02-23T11:50:01;3.22;;;0.40;;
14076;SDS011;7114;51.100;13.998;2024-02-23T11:52:28;3.15;;;0.40;;
14076;SDS011;7114;51.100;13.998;2024-02-23T11:54:55;3.53;;;0.50;;
14076;SDS011;7114;51.100;13.998;2024-02-23T11:57:21;3.53;;;0.40;;
14076;SDS011;7114;51.100;13.998;2024-02-23T11:59:50;4.53;;;0.30;;
14076;SDS011;7114;51.100;13.998;2024-02-23T12:02:17;2.92;;;0.47;;
14076;SDS011;7114;51.100;13.998;2024-02-23T12:04:43;1.83;;;0.25;;
14076;SDS011;7114;51.100;13.998;2024-02-23T12:07:09;2.67;;;0.40;;
14076;SDS011;7114;51.100;13.998;2024-02-23T12:09:37;4.23;;;0.40;;
14076;SDS011;7114;51.100;13.998;2024-02-23T12:12:06;4.90;;;0.40;;
14076;SDS011;7114;51.100;13.998;2024-02-23T12:14:34;3.33;;;0.38;;
14076;SDS011;7114;51.100;13.998;2024-02-23T12:17:01;3.47;;;0.30;;
14076;SDS011;7114;51.100;13.998;2024-02-23T12:19:28;2.42;;;0.40;;
14076;SDS011;7114;51.100;13.998;2024-02-23T12:21:59;4.13;;;0.40;;
14076;SDS011;7114;51.100;13.998;2024-02-23T12:24:26;4.18;;;0.40;;
14076;SDS011;7114;51.100;13.998;2024-02-23T12:26:54;5.20;;;0.55;;
14076;SDS011;7114;51.100;13.998;2024-02-23T12:29:22;2.20;;;0.30;;
14076;SDS011;7114;51.100;13.998;2024-02-23T12:31:49;2.58;;;0.30;;
14076;SDS011;7114;51.100;13.998;2024-02-23T12:34:16;1.67;;;0.30;;
14076;SDS011;7114;51.100;13.998;2024-02-23T12:36:43;2.92;;;0.30;;
14076;SDS011;7114;51.100;13.998;2024-02-23T12:39:09;2.80;;;0.30;;
14076;SDS011;7114;51.100;13.998;2024-02-23T12:41:36;2.28;;;0.30;;
14076;SDS011;7114;51.100;13.998;2024-02-23T12:44:03;2.63;;;0.35;;
14076;SDS011;7114;51.100;13.998;2024-02-23T12:46:30;3.93;;;0.30;;
14076;SDS011;7114;51.100;13.998;2024-02-23T12:48:56;2.97;;;0.30;;
14076;SDS011;7114;51.100;13.998;2024-02-23T12:51:24;3.75;;;0.30;;
14076;SDS011;7114;51.100;13.998;2024-02-23T12:53:51;4.28;;;0.40;;
14076;SDS011;7114;51.100;13.998;2024-02-23T12:56:17;2.88;;;0.30;;
14076;SDS011;7114;51.100;13.998;2024-02-23T12:58:44;2.40;;;0.30;;
14076;SDS011;7114;51.100;13.998;2024-02-23T13:01:12;2.50;;;0.30;;
14076;SDS011;7114;51.100;13.998;2024-02-23T13:03:39;2.42;;;0.30;;
14076;SDS011;7114;51.100;13.998;2024-02-23T13:06:06;2.20;;;0.30;;
14076;SDS011;7114;51.100;13.998;2024-02-23T13:08:33;1.90;;;0.30;;
14076;SDS011;7114;51.100;13.998;2024-02-23T13:10:59;3.93;;;0.40;;
14076;SDS011;7114;51.100;13.998;2024-02-23T13:13:26;5.00;;;0.43;;
14076;SDS011;7114;51.100;13.998;2024-02-23T13:15:54;3.83;;;0.40;;
14076;SDS011;7114;51.100;13.998;2024-02-23T13:18:21;2.85;;;0.30;;
14076;SDS011;7114;51.100;13.998;2024-02-23T13:20:48;2.45;;;0.40;;
14076;SDS011;7114;51.100;13.998;2024-02-23T13:23:14;3.73;;;0.50;;
14076;SDS011;7114;51.100;13.998;2024-02-23T13:25:40;2.42;;;0.30;;
14076;SDS011;7114;51.100;13.998;2024-02-23T13:28:07;2.10;;;0.30;;
14076;SDS011;7114;51.100;13.998;2024-02-23T13:30:35;2.97;;;0.30;;
14076;SDS011;7114;51.100;13.998;2024-02-23T13:33:02;4.72;;;0.47;;
14076;SDS011;7114;51.100;13.998;2024-02-23T13:35:30;2.40;;;0.40;;
14076;SDS011;7114;51.100;13.998;2024-02-23T13:37:56;3.97;;;0.50;;
14076;SDS011;7114;51.100;13.998;2024-02-23T13:40:23;4.07;;;0.50;;
14076;SDS011;7114;51.100;13.998;2024-02-23T13:42:49;3.80;;;0.50;;
14076;SDS011;7114;51.100;13.998;2024-02-23T13:45:17;3.67;;;0.40;;
14076;SDS011;7114;51.100;13.998;2024-02-23T13:47:44;3.77;;;0.40;;
14076;SDS011;7114;51.100;13.998;2024-02-23T13:50:21;3.63;;;0.40;;
14076;SDS011;7114;51.100;13.998;2024-02-23T13:52:49;3.67;;;0.52;;
14076;SDS011;7114;51.100;13.998;2024-02-23T13:55:15;4.78;;;0.50;;
14076;SDS011;7114;51.100;13.998;2024-02-23T13:57:42;3.80;;;0.40;;
14076;SDS011;7114;51.100;13.998;2024-02-23T14:00:08;3.47;;;0.50;;
14076;SDS011;7114;51.100;13.998;2024-02-23T14:02:37;4.57;;;0.40;;
14076;SDS011;7114;51.100;13.998;2024-02-23T14:05:06;4.75;;;0.40;;
14076;SDS011;7114;51.100;13.998;2024-02-23T14:07:33;4.97;;;0.50;;
14076;SDS011;7114;51.100;13.998;2024-02-23T14:10:01;3.05;;;0.43;;
14076;SDS011;7114;51.100;13.998;2024-02-23T14:12:28;5.60;;;0.70;;
14076;SDS011;7114;51.100;13.998;2024-02-23T14:14:54;3.80;;;0.40;;
14076;SDS011;7114;51.100;13.998;2024-02-23T14:17:20;3.92;;;0.43;;
14076;SDS011;7114;51.100;13.998;2024-02-23T14:19:47;3.85;;;0.40;;
14076;SDS011;7114;51.100;13.998;2024-02-23T14:22:15;3.17;;;0.40;;
14076;SDS011;7114;51.100;13.998;2024-02-23T14:24:42;3.00;;;0.40;;
14076;SDS011;7114;51.100;13.998;2024-02-23T14:27:10;2.72;;;0.30;;
14076;SDS011;7114;51.100;13.998;2024-02-23T14:29:36;3.38;;;0.40;;
14076;SDS011;7114;51.100;13.998;2024-02-23T14:32:02;4.93;;;0.40;;
14076;SDS011;7114;51.100;13.998;2024-02-23T14:34:29;2.83;;;0.40;;
14076;SDS011;7114;51.100;13.998;2024-02-23T14:36:58;3.83;;;0.40;;
14076;SDS011;7114;51.100;13.998;2024-02-23T14:39:25;3.65;;;0.45;;
14076;SDS011;7114;51.100;13.998;2024-02-23T14:41:51;3.03;;;0.43;;
14076;SDS011;7114;51.100;13.998;2024-02-23T14:44:19;5.03;;;0.50;;
14076;SDS011;7114;51.100;13.998;2024-02-23T14:46:45;4.50;;;0.50;;